createdAt,value
2023-02-15T00:01:23.824Z,3.87
2023-02-15T00:03:53.477Z,3.95
2023-02-15T00:06:21.874Z,3.94
2023-02-15T00:08:51.462Z,3.96
2023-02-15T00:11:39.796Z,3.95
2023-02-15T00:14:21.768Z,3.96
2023-02-15T00:16:53.262Z,4.04
2023-02-15T00:19:23.485Z,4.04
2023-02-15T00:21:52.645Z,3.92
2023-02-15T00:24:22.028Z,3.92
2023-02-15T00:26:51.623Z,3.97
2023-02-15T00:29:22.265Z,3.93
2023-02-15T00:31:52.725Z,3.92
2023-02-15T00:34:25.184Z,3.98
2023-02-15T00:36:54.962Z,3.97
2023-02-15T00:39:25.471Z,3.96
2023-02-15T00:41:54.852Z,3.98
2023-02-15T00:44:24.307Z,4.08
2023-02-15T00:46:53.668Z,4.08
2023-02-15T00:49:23.603Z,4.05
2023-02-15T00:51:52.848Z,4.06
2023-02-15T00:54:21.989Z,4.03
2023-02-15T00:56:53.063Z,4.04
2023-02-15T00:59:22.312Z,4.04
2023-02-15T04:02:01.686Z,4.66
2023-02-15T04:04:36.186Z,4.68
2023-02-15T04:07:07.536Z,4.70
2023-02-15T04:09:55.819Z,4.67
2023-02-15T04:12:25.708Z,4.68
2023-02-15T04:15:13.828Z,4.67
2023-02-15T04:17:43.641Z,4.68
2023-02-15T04:20:30.749Z,4.71
2023-02-15T04:23:19.058Z,4.71
2023-02-15T04:25:48.407Z,4.72
2023-02-15T04:28:18.895Z,4.78
2023-02-15T04:30:49.384Z,4.73
2023-02-15T04:33:18.867Z,4.71
2023-02-15T04:35:48.175Z,4.73
2023-02-15T04:38:17.180Z,4.74
2023-02-15T04:40:51.672Z,4.77
2023-02-15T04:43:21.570Z,4.75
2023-02-15T04:45:52.743Z,4.74
2023-02-15T04:48:22.063Z,4.80
2023-02-15T04:50:51.391Z,4.80
2023-02-15T04:53:20.454Z,4.86
2023-02-15T04:55:50.268Z,4.93
2023-02-15T04:58:19.299Z,4.98
2023-02-15T05:00:48.917Z,4.95
2023-02-15T05:03:19.665Z,4.90
2023-02-15T05:05:48.939Z,4.82
2023-02-15T05:08:18.708Z,4.76
2023-02-15T05:10:50.424Z,4.71
2023-02-15T05:13:19.653Z,4.66
2023-02-15T05:15:53.306Z,4.61
2023-02-15T05:18:23.158Z,4.59
2023-02-15T05:20:52.421Z,4.60
2023-02-15T05:23:20.751Z,4.62
2023-02-15T05:26:10.007Z,4.70
2023-02-15T05:28:40.144Z,4.74
2023-02-15T05:31:19.203Z,4.80
2023-02-15T05:33:49.174Z,4.88
2023-02-15T05:36:18.338Z,4.82
2023-02-15T05:38:47.440Z,4.73
2023-02-15T05:41:16.618Z,4.78
2023-02-15T05:43:45.736Z,4.78
2023-02-15T05:46:15.094Z,4.76
2023-02-15T05:48:44.121Z,4.72
2023-02-15T05:51:15.256Z,4.69
2023-02-15T05:53:44.947Z,4.70
2023-02-15T05:56:15.263Z,4.80
2023-02-15T05:58:44.576Z,4.85
2023-02-15T06:01:16.705Z,4.87
2023-02-15T06:03:46.646Z,4.81
2023-02-15T06:06:17.061Z,4.76
2023-02-15T06:08:45.980Z,4.72
2023-02-15T06:11:15.039Z,4.67
2023-02-15T06:13:43.661Z,4.65
2023-02-15T06:16:12.117Z,4.62
2023-02-15T06:18:40.718Z,4.61
2023-02-15T06:21:09.104Z,4.62
2023-02-15T06:23:37.862Z,4.66
2023-02-15T06:26:06.206Z,4.67
2023-02-15T06:28:35.848Z,4.69
2023-02-15T06:31:05.518Z,4.66
2023-02-15T06:33:38.244Z,4.68
2023-02-15T06:36:07.833Z,4.73
2023-02-15T06:38:37.150Z,4.77
2023-02-15T06:41:06.962Z,4.81
2023-02-15T06:43:36.346Z,4.82
2023-02-15T06:46:05.117Z,4.82
2023-02-15T06:48:34.652Z,4.84
2023-02-15T06:51:04.206Z,4.85
2023-02-15T06:53:32.702Z,4.86
2023-02-15T06:56:08.072Z,4.89
2023-02-15T06:58:39.207Z,4.93
2023-02-15T07:01:09.531Z,4.99
2023-02-15T07:03:38.673Z,5.07
2023-02-15T07:06:10.099Z,5.10
2023-02-15T07:08:41.069Z,5.07
2023-02-15T07:11:28.570Z,5.08
2023-02-15T07:14:00.797Z,5.14
2023-02-15T07:16:29.710Z,5.23
2023-02-15T07:18:58.232Z,5.27
2023-02-15T07:21:26.559Z,5.32
2023-02-15T07:24:01.670Z,5.30
2023-02-15T07:26:36.374Z,5.30
2023-02-15T07:29:08.668Z,5.34
2023-02-15T07:31:37.897Z,5.35
2023-02-15T07:34:09.255Z,5.38
2023-02-15T07:36:38.480Z,5.45
2023-02-15T07:39:08.257Z,5.47
2023-02-15T07:41:37.880Z,5.52
2023-02-15T07:44:15.436Z,5.55
2023-02-15T07:46:44.771Z,5.58
2023-02-15T07:49:14.243Z,5.63
2023-02-15T07:51:43.428Z,5.68
2023-02-15T07:54:11.791Z,5.73
2023-02-15T07:56:41.234Z,5.75
2023-02-15T07:59:10.432Z,5.83
2023-02-15T08:01:40.396Z,5.88
2023-02-15T08:04:12.189Z,5.93
2023-02-15T08:06:40.746Z,5.90
2023-02-15T08:09:10.641Z,5.85
2023-02-15T08:11:42.010Z,5.84
2023-02-15T08:14:23.510Z,5.88
2023-02-15T08:16:56.209Z,5.92
2023-02-15T08:19:26.255Z,6.00
2023-02-15T08:22:01.206Z,6.05
2023-02-15T08:24:32.363Z,6.07
2023-02-15T08:27:06.059Z,6.11
2023-02-15T08:29:36.860Z,6.13
2023-02-15T08:32:08.562Z,6.12
2023-02-15T08:34:41.215Z,6.09
2023-02-15T08:37:10.597Z,6.08
2023-02-15T08:39:39.188Z,6.09
2023-02-15T08:42:08.480Z,6.16
2023-02-15T08:44:37.544Z,6.22
2023-02-15T08:47:06.994Z,6.25
2023-02-15T08:49:36.292Z,6.22
2023-02-15T08:52:04.806Z,6.20
2023-02-15T08:54:34.933Z,6.26
2023-02-15T08:57:03.576Z,6.33
2023-02-15T08:59:32.430Z,6.36
2023-02-15T09:02:02.785Z,6.40
2023-02-15T09:04:33.321Z,6.43
2023-02-15T09:07:02.115Z,6.43
2023-02-15T09:09:32.409Z,6.40
2023-02-15T09:12:01.767Z,6.41
2023-02-15T09:14:31.087Z,6.40
2023-02-15T09:17:00.314Z,6.38
2023-02-15T09:19:28.854Z,6.45
2023-02-15T09:21:57.125Z,6.55
2023-02-15T09:24:26.229Z,6.63
2023-02-15T09:26:54.666Z,6.69
2023-02-15T09:29:24.070Z,6.76
2023-02-15T09:31:54.993Z,6.85
2023-02-15T09:34:25.173Z,6.88
2023-02-15T09:36:54.912Z,6.88
2023-02-15T09:39:26.179Z,6.86
2023-02-15T09:42:26.614Z,6.87
2023-02-15T09:45:14.245Z,6.86
2023-02-15T09:48:15.444Z,6.82
2023-02-15T09:50:51.166Z,6.84
2023-02-15T09:53:38.761Z,6.85
2023-02-15T09:56:31.913Z,6.85
2023-02-15T09:59:27.008Z,6.86
2023-02-15T10:02:20.773Z,6.89
2023-02-15T10:04:58.813Z,6.94
2023-02-15T10:08:14.060Z,6.90
2023-02-15T10:10:54.293Z,6.84
2023-02-15T10:13:43.496Z,6.86
2023-02-15T10:16:32.540Z,6.83
2023-02-15T10:19:54.210Z,6.81
2023-02-15T10:22:50.004Z,6.82
2023-02-15T10:25:30.979Z,6.85
2023-02-15T10:28:10.510Z,6.89
2023-02-15T10:30:52.412Z,6.92
2023-02-15T10:33:32.436Z,6.96
2023-02-15T10:36:06.759Z,7.02
2023-02-15T10:38:49.172Z,7.03
2023-02-15T10:41:38.619Z,7.04
2023-02-15T10:44:42.836Z,7.03
2023-02-15T10:47:35.280Z,7.03
2023-02-15T10:50:26.583Z,6.99
2023-02-15T10:53:07.772Z,6.97
2023-02-15T10:55:48.676Z,6.99
2023-02-15T10:58:41.910Z,6.97
2023-02-15T11:01:12.921Z,6.95
2023-02-15T11:04:21.673Z,6.95
2023-02-15T11:07:04.346Z,6.93
2023-02-15T11:09:45.269Z,6.93
2023-02-15T11:12:19.487Z,6.91
2023-02-15T11:14:58.662Z,6.89
2023-02-15T11:17:52.108Z,6.95
2023-02-15T11:20:37.968Z,7.00
2023-02-15T11:23:17.537Z,7.06
2023-02-15T11:25:59.572Z,7.12
2023-02-15T11:28:53.361Z,7.20
2023-02-15T11:31:28.628Z,7.22
2023-02-15T11:34:07.632Z,7.27
2023-02-15T11:36:42.431Z,7.33
2023-02-15T11:39:16.018Z,7.33
2023-02-15T11:42:20.592Z,7.35
2023-02-15T11:45:29.028Z,7.39
2023-02-15T11:48:00.191Z,7.39
2023-02-15T11:50:33.785Z,7.39
2023-02-15T11:53:07.872Z,7.39
2023-02-15T11:55:37.520Z,7.39
2023-02-15T11:58:25.384Z,7.40
2023-02-15T12:01:03.597Z,7.46
2023-02-15T12:03:53.809Z,7.46
2023-02-15T12:06:31.996Z,7.48
2023-02-15T12:09:07.843Z,7.50
2023-02-15T12:11:43.111Z,7.53
2023-02-15T12:14:17.883Z,7.56
2023-02-15T12:16:56.239Z,7.57
2023-02-15T12:19:39.259Z,7.57
2023-02-15T12:22:30.506Z,7.50
2023-02-15T12:25:06.272Z,7.50
2023-02-15T12:27:36.586Z,7.48
2023-02-15T12:30:08.653Z,7.48
2023-02-15T12:32:54.355Z,7.49
2023-02-15T12:35:37.208Z,7.52
2023-02-15T12:38:11.934Z,7.54
2023-02-15T12:40:41.409Z,7.56
2023-02-15T12:43:46.356Z,7.58
2023-02-15T12:46:24.964Z,7.62
2023-02-15T12:49:13.657Z,7.62
2023-02-15T12:51:45.524Z,7.54
2023-02-15T12:54:55.481Z,7.46
2023-02-15T12:57:35.153Z,7.37
2023-02-15T13:00:23.254Z,7.32
2023-02-15T13:02:58.140Z,7.29
2023-02-15T13:05:36.154Z,7.32
2023-02-15T13:08:16.866Z,7.36
2023-02-15T13:10:56.205Z,7.36
2023-02-15T13:13:31.840Z,7.41
2023-02-15T13:16:06.413Z,7.41
2023-02-15T13:18:40.389Z,7.38
2023-02-15T13:21:15.927Z,7.35
2023-02-15T13:23:49.646Z,7.30
2023-02-15T13:26:23.977Z,7.27
2023-02-15T13:29:00.606Z,7.30
2023-02-15T13:31:33.769Z,7.31
2023-02-15T13:34:30.061Z,7.31
2023-02-15T13:37:25.094Z,7.31
2023-02-15T13:40:12.076Z,7.28
2023-02-15T13:42:56.962Z,7.27
2023-02-15T13:45:49.699Z,7.27
2023-02-15T13:48:50.229Z,7.22
2023-02-15T13:51:42.636Z,7.18
2023-02-15T13:54:17.231Z,7.12
2023-02-15T13:57:21.387Z,7.08
2023-02-15T13:59:57.494Z,7.09
2023-02-15T14:02:40.298Z,7.08
2023-02-15T14:05:41.410Z,7.08
2023-02-15T14:08:15.435Z,7.04
2023-02-15T14:11:29.364Z,7.02
2023-02-15T14:14:19.367Z,7.00
2023-02-15T14:17:16.987Z,7.00
2023-02-15T14:19:56.343Z,7.04
2023-02-15T14:22:37.539Z,7.03
2023-02-15T14:25:19.419Z,7.01
2023-02-15T14:28:02.949Z,7.04
2023-02-15T14:30:39.341Z,7.06
2023-02-15T14:33:20.251Z,7.08
2023-02-15T14:35:49.745Z,7.08
2023-02-15T14:38:34.812Z,7.10
2023-02-15T14:41:11.096Z,7.11
2023-02-15T14:44:17.348Z,7.13
2023-02-15T14:47:05.389Z,7.11
2023-02-15T14:49:38.132Z,7.09
2023-02-15T14:52:09.908Z,7.06
2023-02-15T14:54:38.561Z,7.04
2023-02-15T14:57:07.934Z,6.98
2023-02-15T14:59:39.252Z,6.97
2023-02-15T15:02:07.798Z,6.99
2023-02-15T15:05:00.575Z,6.99
2023-02-15T15:07:53.238Z,7.00
2023-02-15T15:10:22.717Z,6.97
2023-02-15T15:12:53.853Z,6.96
2023-02-15T15:15:22.105Z,6.93
2023-02-15T15:18:03.898Z,6.88
2023-02-15T15:20:44.713Z,6.85
2023-02-15T15:23:16.741Z,6.82
2023-02-15T15:25:46.548Z,6.82
2023-02-15T15:28:34.060Z,6.82
2023-02-15T15:31:09.236Z,6.75
2023-02-15T15:33:56.419Z,6.69
2023-02-15T15:36:39.950Z,6.66
2023-02-15T15:39:33.875Z,6.67
2023-02-15T15:42:26.734Z,6.65
2023-02-15T15:45:22.833Z,6.61
2023-02-15T15:48:29.448Z,6.54
2023-02-15T15:51:01.975Z,6.51
2023-02-15T15:53:39.071Z,6.48
2023-02-15T15:56:14.123Z,6.45
2023-02-15T15:58:47.944Z,6.44
2023-02-15T16:01:17.856Z,6.44
2023-02-15T16:03:53.363Z,6.36
2023-02-15T16:06:35.102Z,6.32
2023-02-15T16:09:21.168Z,6.30
2023-02-15T16:12:01.761Z,6.25
2023-02-15T16:14:34.707Z,6.22
2023-02-15T16:17:08.588Z,6.19
2023-02-15T16:19:40.005Z,6.19
2023-02-15T16:22:17.067Z,6.15
2023-02-15T16:24:49.302Z,6.12
2023-02-15T16:27:30.762Z,6.10
2023-02-15T16:30:00.124Z,6.09
2023-02-15T16:32:29.436Z,6.08
2023-02-15T16:35:00.309Z,6.07
2023-02-15T16:37:33.832Z,6.05
2023-02-15T16:40:03.526Z,6.00
2023-02-15T16:42:32.957Z,5.98
2023-02-15T16:45:05.200Z,5.99
2023-02-15T16:47:42.025Z,5.99
2023-02-15T16:50:39.233Z,5.99
2023-02-15T16:53:18.659Z,6.00
2023-02-15T16:55:52.630Z,6.02
2023-02-15T16:58:32.865Z,6.01
2023-02-15T17:01:04.164Z,6.01
2023-02-15T17:03:33.568Z,6.00
2023-02-15T17:06:05.474Z,5.99
2023-02-15T17:08:45.907Z,5.97
2023-02-15T17:11:20.692Z,5.95
2023-02-15T17:14:22.264Z,5.94
2023-02-15T17:17:00.284Z,5.91
2023-02-15T17:19:50.306Z,5.89
2023-02-15T17:22:24.315Z,5.91
2023-02-15T17:25:00.978Z,5.90
2023-02-15T17:27:36.209Z,5.88
2023-02-15T17:30:18.494Z,5.85
2023-02-15T17:32:57.685Z,5.83
2023-02-15T17:35:29.823Z,5.83
2023-02-15T17:38:18.707Z,5.82
2023-02-15T17:40:49.341Z,5.86
2023-02-15T17:43:18.562Z,5.86
2023-02-15T17:45:53.173Z,5.88
2023-02-15T17:48:34.693Z,5.91
2023-02-15T17:51:06.585Z,5.92
2023-02-15T17:53:35.912Z,5.91
2023-02-15T17:56:11.724Z,5.86
2023-02-15T17:58:40.540Z,5.81
2023-02-15T18:01:36.909Z,5.79
2023-02-15T18:04:28.311Z,5.83
2023-02-15T18:07:17.231Z,5.85
2023-02-15T18:10:04.994Z,5.87
2023-02-15T18:12:36.811Z,5.88
2023-02-15T18:15:07.056Z,5.90
2023-02-15T18:17:43.423Z,5.95
2023-02-15T18:20:24.601Z,5.96
2023-02-15T18:22:53.365Z,5.92
2023-02-15T18:25:25.732Z,5.85
2023-02-15T18:27:55.335Z,5.80
2023-02-15T18:30:26.930Z,5.79
2023-02-15T18:32:57.853Z,5.80
2023-02-15T18:35:31.853Z,5.77
2023-02-15T18:38:02.156Z,5.72
2023-02-15T18:40:31.939Z,5.72
2023-02-15T18:43:01.276Z,5.69
2023-02-15T18:45:33.934Z,5.68
2023-02-15T18:48:02.517Z,5.65
2023-02-15T18:50:36.399Z,5.60
2023-02-15T18:53:08.008Z,5.60
2023-02-15T18:55:36.816Z,5.57
2023-02-15T18:58:05.200Z,5.57
2023-02-15T19:00:35.558Z,5.62
2023-02-15T19:03:04.005Z,5.68
2023-02-15T19:05:33.886Z,5.67
2023-02-15T19:08:03.743Z,5.64
2023-02-15T19:10:33.386Z,5.63
2023-02-15T19:13:02.304Z,5.62
2023-02-15T19:15:30.774Z,5.64
2023-02-15T19:17:59.044Z,5.66
2023-02-15T19:20:32.232Z,5.67
2023-02-15T19:23:02.144Z,5.67
2023-02-15T19:25:34.152Z,5.68
2023-02-15T19:28:09.069Z,5.67
2023-02-15T19:30:38.683Z,5.67
2023-02-15T19:33:17.796Z,5.65
2023-02-15T19:35:52.925Z,5.61
2023-02-15T19:38:35.319Z,5.58
2023-02-15T19:41:09.349Z,5.57
2023-02-15T19:43:38.250Z,5.54
2023-02-15T19:46:07.027Z,5.55
2023-02-15T19:48:35.820Z,5.56
2023-02-15T19:51:04.984Z,5.56
2023-02-15T19:53:33.632Z,5.57
2023-02-15T19:56:02.292Z,5.55
2023-02-15T19:58:30.960Z,5.54
2023-02-15T20:00:59.378Z,5.52
2023-02-15T20:03:27.869Z,5.49
2023-02-15T20:05:56.277Z,5.46
2023-02-15T20:08:24.705Z,5.42
2023-02-15T20:10:53.314Z,5.38
2023-02-15T20:13:21.916Z,5.35
2023-02-15T20:15:52.045Z,5.31
2023-02-15T20:18:22.601Z,5.31
2023-02-15T20:20:55.174Z,5.32
2023-02-15T20:23:31.388Z,5.33
2023-02-15T20:26:23.322Z,5.32
2023-02-15T20:28:51.699Z,5.30
2023-02-15T20:31:23.460Z,5.30
2023-02-15T20:33:53.244Z,5.30
2023-02-15T20:36:23.427Z,5.34
2023-02-15T20:38:52.234Z,5.36
2023-02-15T20:41:37.811Z,5.35
2023-02-15T20:44:18.040Z,5.34
2023-02-15T20:46:47.846Z,5.35
2023-02-15T20:49:16.583Z,5.36
2023-02-15T20:51:47.170Z,5.38
2023-02-15T20:54:19.126Z,5.40
2023-02-15T20:56:48.580Z,5.39
2023-02-15T20:59:25.091Z,5.37
2023-02-15T21:02:02.900Z,5.36
2023-02-15T21:04:35.266Z,5.34
2023-02-15T21:07:04.341Z,5.32
2023-02-15T21:09:32.699Z,5.31
2023-02-15T21:12:03.142Z,5.29
2023-02-15T21:14:31.751Z,5.22
2023-02-15T21:17:00.201Z,5.20
2023-02-15T21:19:29.704Z,5.20
2023-02-15T21:22:00.279Z,5.22
2023-02-15T21:24:30.407Z,5.24
2023-02-15T21:27:04.387Z,5.29
2023-02-15T21:29:33.719Z,5.31
2023-02-15T21:32:04.715Z,5.29
2023-02-15T21:34:33.746Z,5.27
2023-02-15T21:37:03.269Z,5.26
2023-02-15T21:39:36.331Z,5.29
2023-02-15T21:42:29.639Z,5.34
2023-02-15T21:45:17.866Z,5.36
2023-02-15T21:47:53.768Z,5.37
2023-02-15T21:50:44.076Z,5.39
2023-02-15T21:53:21.156Z,5.37
2023-02-15T21:55:50.952Z,5.39
2023-02-15T21:58:22.249Z,5.39
2023-02-15T22:00:54.817Z,5.41
2023-02-15T22:03:26.090Z,5.41
2023-02-15T22:05:54.740Z,5.40
2023-02-15T22:08:23.407Z,5.40
2023-02-15T22:10:54.666Z,5.41
2023-02-15T22:13:29.867Z,5.43
2023-02-15T22:15:59.623Z,5.38
2023-02-15T22:18:34.020Z,5.35
2023-02-15T22:21:04.853Z,5.32
2023-02-15T22:23:34.150Z,5.30
2023-02-15T22:26:25.749Z,5.31
2023-02-15T22:28:57.872Z,5.33
2023-02-15T22:31:28.711Z,5.31
2023-02-15T22:33:58.284Z,5.33
2023-02-15T22:36:29.892Z,5.35
2023-02-15T22:38:59.567Z,5.35
2023-02-15T22:41:31.572Z,5.35
2023-02-15T22:44:00.784Z,5.32
2023-02-15T22:46:30.155Z,5.28
2023-02-15T22:48:59.302Z,5.26
2023-02-15T22:51:30.258Z,5.29
2023-02-15T22:53:59.543Z,5.31
2023-02-15T22:56:39.386Z,5.29
2023-02-15T22:59:29.037Z,5.28
2023-02-15T23:01:58.795Z,5.25
2023-02-15T23:04:30.161Z,5.21
2023-02-15T23:07:01.162Z,5.21
2023-02-15T23:09:30.288Z,5.23
2023-02-15T23:11:59.810Z,5.24
2023-02-15T23:14:34.861Z,5.24
2023-02-15T23:17:04.435Z,5.24
2023-02-15T23:19:34.009Z,5.27
2023-02-15T23:22:03.492Z,5.26
2023-02-15T23:24:35.027Z,5.26
2023-02-15T23:27:23.739Z,5.21
2023-02-15T23:29:53.352Z,5.17
2023-02-15T23:32:22.893Z,5.17
2023-02-15T23:34:52.142Z,5.15
2023-02-15T23:37:21.536Z,5.20
2023-02-15T23:40:11.477Z,5.24
2023-02-15T23:42:40.979Z,5.24
2023-02-15T23:45:23.555Z,5.23
2023-02-15T23:48:12.512Z,5.16
2023-02-15T23:50:42.035Z,5.11
2023-02-15T23:53:11.295Z,5.11
2023-02-15T23:55:44.905Z,5.09
2023-02-15T23:58:30.849Z,5.06
